createdAt,value
2018-06-25T00:01:20.937Z,14.10
2018-06-25T00:03:49.622Z,14.00
2018-06-25T00:06:18.276Z,14.00
2018-06-25T00:08:46.957Z,14.10
2018-06-25T00:11:15.613Z,14.00
2018-06-25T00:13:44.282Z,14.00
2018-06-25T00:16:12.917Z,14.10
2018-06-25T00:18:41.622Z,14.10
2018-06-25T00:21:10.287Z,14.10
2018-06-25T00:23:38.975Z,14.10
2018-06-25T00:26:07.713Z,14.10
2018-06-25T00:28:36.422Z,14.10
2018-06-25T00:31:05.263Z,14.20
2018-06-25T00:33:34.087Z,14.20
2018-06-25T00:36:02.837Z,14.20
2018-06-25T00:38:31.582Z,14.20
2018-06-25T00:41:00.317Z,14.20
2018-06-25T00:43:29.044Z,14.20
2018-06-25T00:45:57.762Z,14.20
2018-06-25T00:48:26.469Z,14.20
2018-06-25T00:50:55.288Z,14.20
2018-06-25T00:53:24.026Z,14.20
2018-06-25T00:55:52.783Z,14.20
2018-06-25T00:58:21.541Z,14.30
2018-06-25T01:00:50.286Z,14.30
2018-06-25T01:03:19.030Z,14.30
2018-06-25T01:05:47.756Z,14.30
2018-06-25T01:08:16.485Z,14.30
2018-06-25T01:10:45.265Z,14.20
2018-06-25T01:13:13.966Z,14.20
2018-06-25T01:15:42.807Z,14.20
2018-06-25T01:18:11.510Z,14.20
2018-06-25T01:20:40.610Z,14.20
2018-06-25T01:23:09.317Z,14.20
2018-06-25T01:25:38.157Z,14.20
2018-06-25T01:28:06.893Z,14.10
2018-06-25T01:30:35.749Z,14.10
2018-06-25T01:33:04.534Z,14.10
2018-06-25T01:35:33.270Z,14.10
2018-06-25T01:38:01.990Z,14.10
2018-06-25T01:40:30.749Z,14.10
2018-06-25T01:42:59.516Z,14.20
2018-06-25T01:45:28.269Z,14.20
2018-06-25T01:47:56.981Z,14.20
2018-06-25T01:50:25.710Z,14.20
2018-06-25T01:52:54.409Z,14.20
2018-06-25T01:55:23.145Z,14.20
2018-06-25T01:57:51.920Z,14.20
2018-06-25T02:00:20.776Z,14.20
2018-06-25T02:02:49.483Z,14.00
2018-06-25T02:05:18.294Z,13.90
2018-06-25T02:07:47.070Z,13.80
2018-06-25T02:10:15.880Z,13.80
2018-06-25T02:12:44.674Z,13.80
2018-06-25T02:15:13.407Z,13.70
2018-06-25T02:17:42.170Z,13.70
2018-06-25T02:20:11.121Z,13.60
2018-06-25T02:22:39.938Z,13.60
2018-06-25T02:25:08.737Z,13.70
2018-06-25T02:27:37.594Z,13.80
2018-06-25T02:30:06.442Z,13.90
2018-06-25T02:32:35.291Z,13.90
2018-06-25T02:35:04.041Z,13.90
2018-06-25T02:37:32.778Z,13.90
2018-06-25T02:40:01.521Z,13.80
2018-06-25T02:42:30.347Z,13.90
2018-06-25T02:44:59.106Z,14.00
2018-06-25T02:47:27.867Z,14.00
2018-06-25T02:49:56.678Z,14.10
2018-06-25T02:52:25.377Z,14.00
2018-06-25T02:54:54.214Z,14.00
2018-06-25T02:57:23.062Z,14.10
2018-06-25T02:59:51.887Z,14.10
2018-06-25T03:02:20.705Z,14.20
2018-06-25T03:04:49.506Z,14.20
2018-06-25T03:07:18.287Z,14.20
2018-06-25T03:09:46.965Z,14.30
2018-06-25T03:12:15.647Z,14.20
2018-06-25T03:14:44.398Z,14.20
2018-06-25T03:17:13.224Z,14.30
2018-06-25T03:19:42.034Z,14.40
2018-06-25T03:22:10.790Z,14.30
2018-06-25T03:24:39.541Z,14.40
2018-06-25T03:27:08.230Z,14.40
2018-06-25T03:29:37.105Z,14.40
2018-06-25T03:32:05.926Z,14.50
2018-06-25T03:34:34.750Z,14.50
2018-06-25T03:37:03.500Z,14.50
2018-06-25T03:39:32.274Z,14.60
2018-06-25T03:42:01.023Z,14.60
2018-06-25T03:44:29.891Z,14.70
2018-06-25T03:46:58.758Z,14.70
2018-06-25T03:49:27.575Z,14.70
2018-06-25T03:51:56.384Z,14.70
2018-06-25T03:54:25.417Z,14.70
2018-06-25T03:56:54.346Z,14.70
2018-06-25T03:59:23.118Z,14.80
2018-06-25T04:01:52.037Z,14.80
2018-06-25T04:04:21.271Z,14.80
2018-06-25T04:06:50.135Z,14.80
2018-06-25T04:09:18.842Z,14.80
2018-06-25T04:11:47.590Z,14.80
2018-06-25T04:14:16.414Z,14.80
2018-06-25T04:16:45.293Z,14.80
2018-06-25T04:19:14.242Z,14.90
2018-06-25T04:21:42.978Z,14.90
2018-06-25T04:24:11.838Z,15.00
2018-06-25T04:26:40.592Z,15.10
2018-06-25T04:29:09.402Z,15.20
2018-06-25T04:31:38.612Z,15.20
2018-06-25T04:34:07.438Z,15.30
2018-06-25T04:36:36.261Z,15.40
2018-06-25T04:39:07.887Z,15.40
2018-06-25T04:41:36.633Z,15.30
2018-06-25T04:44:05.397Z,15.40
2018-06-25T04:46:34.216Z,15.30
2018-06-25T04:49:03.028Z,15.40
2018-06-25T04:51:31.658Z,15.50
2018-06-25T04:54:00.327Z,15.60
2018-06-25T04:56:29.062Z,15.60
2018-06-25T04:58:57.754Z,15.70
2018-06-25T05:01:26.446Z,15.80
2018-06-25T05:03:55.120Z,15.90
2018-06-25T05:06:23.794Z,15.90
2018-06-25T05:08:52.508Z,16.00
2018-06-25T05:11:21.177Z,16.00
2018-06-25T05:13:49.835Z,16.10
2018-06-25T05:16:18.550Z,16.20
2018-06-25T05:18:47.307Z,16.20
2018-06-25T05:21:15.928Z,16.30
2018-06-25T05:23:44.611Z,16.30
2018-06-25T05:26:13.269Z,16.30
2018-06-25T05:28:41.987Z,16.30
2018-06-25T05:31:10.622Z,16.40
2018-06-25T05:33:39.309Z,16.50
2018-06-25T05:36:08.050Z,16.70
2018-06-25T05:38:36.722Z,16.70
2018-06-25T05:41:05.454Z,16.90
2018-06-25T05:43:34.162Z,16.90
2018-06-25T05:46:02.870Z,17.00
2018-06-25T05:48:31.562Z,17.00
2018-06-25T05:51:00.242Z,17.10
2018-06-25T05:53:28.941Z,17.20
2018-06-25T05:55:57.646Z,17.30
2018-06-25T05:58:26.302Z,17.40
2018-06-25T06:00:55.086Z,17.40
2018-06-25T06:03:23.784Z,17.50
2018-06-25T06:05:52.516Z,17.60
2018-06-25T06:08:21.174Z,17.80
2018-06-25T06:10:49.958Z,17.80
2018-06-25T06:13:18.609Z,18.00
2018-06-25T06:15:47.300Z,18.00
2018-06-25T06:18:16.047Z,18.10
2018-06-25T06:20:44.709Z,18.20
2018-06-25T06:23:13.522Z,18.30
2018-06-25T06:25:42.322Z,18.30
2018-06-25T06:28:11.039Z,18.40
2018-06-25T06:30:39.712Z,18.60
2018-06-25T06:33:08.393Z,18.60
2018-06-25T06:35:37.057Z,18.80
2018-06-25T06:38:06.033Z,18.90
2018-06-25T06:40:34.729Z,19.00
2018-06-25T06:43:03.433Z,19.10
2018-06-25T06:45:32.191Z,19.20
2018-06-25T06:48:00.854Z,19.20
2018-06-25T06:50:29.504Z,19.20
2018-06-25T06:52:58.178Z,19.10
2018-06-25T06:55:26.845Z,19.20
2018-06-25T06:57:55.533Z,19.20
2018-06-25T07:00:24.174Z,19.30
2018-06-25T07:02:52.949Z,19.50
2018-06-25T07:05:21.664Z,19.60
2018-06-25T07:07:50.378Z,19.70
2018-06-25T07:10:19.093Z,19.80
2018-06-25T07:12:47.806Z,19.90
2018-06-25T07:15:16.478Z,20.10
2018-06-25T07:17:45.122Z,20.20
2018-06-25T07:20:13.774Z,20.30
2018-06-25T07:22:42.545Z,20.40
2018-06-25T07:25:11.235Z,20.50
2018-06-25T07:27:40.026Z,20.50
2018-06-25T07:30:08.754Z,20.50
2018-06-25T07:32:37.442Z,20.60
2018-06-25T07:35:06.239Z,20.60
2018-06-25T07:37:34.963Z,20.70
2018-06-25T07:40:03.793Z,20.40
2018-06-25T07:42:32.423Z,20.30
2018-06-25T07:45:01.112Z,20.50
2018-06-25T07:47:29.774Z,20.60
2018-06-25T07:49:58.414Z,20.40
2018-06-25T07:52:27.117Z,20.50
2018-06-25T07:54:55.890Z,20.60
2018-06-25T07:57:24.598Z,20.60
2018-06-25T07:59:53.294Z,21.00
2018-06-25T08:02:21.933Z,21.30
2018-06-25T08:04:50.630Z,21.60
2018-06-25T08:07:19.287Z,21.70
2018-06-25T08:09:47.990Z,21.90
2018-06-25T08:12:16.741Z,21.90
2018-06-25T08:14:45.597Z,22.10
2018-06-25T08:17:14.301Z,22.10
2018-06-25T08:19:42.973Z,22.10
2018-06-25T08:22:11.683Z,22.00
2018-06-25T08:24:40.374Z,21.90
2018-06-25T08:27:09.023Z,22.00
2018-06-25T08:29:37.747Z,21.80
2018-06-25T08:32:06.547Z,22.00
2018-06-25T08:34:35.284Z,22.10
2018-06-25T08:37:04.103Z,22.10
2018-06-25T08:39:32.755Z,22.10
2018-06-25T08:42:01.414Z,22.10
2018-06-25T08:44:30.081Z,22.00
2018-06-25T08:46:58.861Z,22.00
2018-06-25T08:49:27.562Z,22.00
2018-06-25T08:51:56.357Z,21.90
2018-06-25T08:54:25.375Z,21.80
2018-06-25T08:56:54.179Z,21.70
2018-06-25T08:59:22.874Z,21.60
2018-06-25T09:01:51.570Z,21.70
2018-06-25T09:04:20.318Z,21.70
2018-06-25T09:06:49.029Z,21.80
2018-06-25T09:09:17.728Z,21.90
2018-06-25T09:11:46.458Z,22.00
2018-06-25T09:14:15.146Z,22.10
2018-06-25T09:16:43.951Z,22.10
2018-06-25T09:19:12.670Z,22.00
2018-06-25T09:21:41.462Z,22.10
2018-06-25T09:24:10.149Z,22.20
2018-06-25T09:26:39.832Z,22.30
2018-06-25T09:29:08.963Z,22.50
2018-06-25T09:31:37.615Z,22.40
2018-06-25T09:34:10.501Z,22.50
2018-06-25T09:36:39.609Z,22.50
2018-06-25T09:39:09.939Z,22.60
2018-06-25T09:41:38.836Z,22.70
2018-06-25T09:44:07.725Z,22.80
2018-06-25T09:46:36.529Z,22.90
2018-06-25T09:49:05.334Z,23.00
2018-06-25T09:51:33.990Z,22.90
2018-06-25T09:54:02.814Z,22.80
2018-06-25T09:56:31.498Z,22.90
2018-06-25T09:59:00.285Z,23.10
2018-06-25T10:01:28.930Z,23.00
2018-06-25T10:03:57.662Z,23.10
2018-06-25T10:06:26.324Z,23.10
2018-06-25T10:08:55.052Z,23.10
2018-06-25T10:11:23.726Z,23.20
2018-06-25T10:13:52.417Z,23.30
2018-06-25T10:16:21.116Z,23.20
2018-06-25T10:18:49.830Z,23.20
2018-06-25T10:21:18.629Z,23.10
2018-06-25T10:23:47.280Z,23.20
2018-06-25T10:26:16.017Z,23.20
2018-06-25T10:28:44.691Z,23.30
2018-06-25T10:31:13.319Z,23.30
2018-06-25T10:33:42.062Z,23.40
2018-06-25T10:36:10.745Z,23.30
2018-06-25T10:38:39.439Z,23.40
2018-06-25T10:41:08.189Z,23.60
2018-06-25T10:43:36.851Z,23.70
2018-06-25T10:46:05.550Z,23.70
2018-06-25T10:48:34.250Z,24.00
2018-06-25T10:51:02.962Z,24.00
2018-06-25T10:53:31.672Z,23.90
2018-06-25T10:56:00.554Z,23.90
2018-06-25T10:58:29.313Z,24.10
2018-06-25T11:00:58.006Z,23.80
2018-06-25T11:03:26.718Z,24.20
2018-06-25T11:05:55.421Z,24.30
2018-06-25T11:08:24.106Z,24.40
2018-06-25T11:10:52.766Z,24.50
2018-06-25T11:13:21.479Z,24.50
2018-06-25T11:15:50.140Z,24.60
2018-06-25T11:18:18.821Z,24.60
2018-06-25T11:20:47.450Z,25.00
2018-06-25T11:23:16.089Z,24.80
2018-06-25T11:25:44.753Z,25.00
2018-06-25T11:28:13.425Z,24.90
2018-06-25T11:30:42.078Z,24.70
2018-06-25T11:33:10.774Z,24.60
2018-06-25T11:35:39.423Z,24.80
2018-06-25T11:38:08.110Z,24.60
2018-06-25T11:40:36.742Z,24.90
2018-06-25T11:43:05.681Z,24.60
2018-06-25T11:45:34.380Z,24.20
2018-06-25T11:48:03.102Z,24.70
2018-06-25T11:50:31.780Z,24.70
2018-06-25T11:53:00.426Z,25.00
2018-06-25T11:55:29.142Z,25.20
2018-06-25T11:57:57.837Z,25.50
2018-06-25T12:00:26.528Z,25.70
2018-06-25T12:02:55.297Z,25.80
2018-06-25T12:05:23.898Z,26.00
2018-06-25T12:07:52.529Z,25.90
2018-06-25T12:10:21.261Z,26.20
2018-06-25T12:12:49.985Z,26.20
2018-06-25T12:15:18.693Z,26.20
2018-06-25T12:17:47.488Z,26.40
2018-06-25T12:20:16.158Z,26.20
2018-06-25T12:22:44.798Z,26.00
2018-06-25T12:25:13.587Z,25.60
2018-06-25T12:27:42.290Z,25.90
2018-06-25T12:30:10.986Z,26.30
2018-06-25T12:32:39.681Z,25.80
2018-06-25T12:35:08.401Z,25.90
2018-06-25T12:37:37.049Z,26.00
2018-06-25T12:40:05.861Z,25.70
2018-06-25T12:42:34.517Z,26.00
2018-06-25T12:45:03.282Z,25.80
2018-06-25T12:47:31.986Z,26.20
2018-06-25T12:50:00.661Z,26.60
2018-06-25T12:52:29.355Z,26.00
2018-06-25T12:54:58.034Z,25.90
2018-06-25T12:57:26.703Z,26.30
2018-06-25T12:59:55.421Z,27.00
2018-06-25T13:02:24.089Z,27.00
2018-06-25T13:04:52.741Z,27.50
2018-06-25T13:07:21.410Z,28.40
2018-06-25T13:09:56.614Z,28.00
2018-06-25T13:12:25.341Z,28.50
2018-06-25T13:14:54.021Z,28.30
2018-06-25T13:17:22.714Z,28.40
2018-06-25T13:19:51.391Z,28.70
2018-06-25T13:22:20.109Z,29.00
2018-06-25T13:24:48.737Z,28.90
2018-06-25T13:27:17.610Z,29.20
2018-06-25T13:29:46.294Z,29.40
2018-06-25T13:32:14.966Z,31.30
2018-06-25T13:34:43.657Z,31.40
2018-06-25T13:37:12.300Z,30.70
2018-06-25T13:39:40.999Z,31.00
2018-06-25T13:42:09.677Z,30.70
2018-06-25T13:44:38.383Z,30.60
2018-06-25T13:47:07.333Z,29.90
2018-06-25T13:49:36.006Z,29.60
2018-06-25T13:52:04.749Z,29.30
2018-06-25T13:54:33.558Z,29.00
2018-06-25T13:57:02.258Z,28.60
2018-06-25T13:59:30.913Z,28.20
2018-06-25T14:01:59.657Z,29.40
2018-06-25T14:04:28.357Z,30.50
2018-06-25T14:06:57.027Z,32.10
2018-06-25T14:09:25.790Z,33.00
2018-06-25T14:11:54.495Z,32.80
2018-06-25T14:14:23.190Z,33.20
2018-06-25T14:16:52.127Z,34.70
2018-06-25T14:19:21.004Z,35.40
2018-06-25T14:21:49.899Z,34.00
2018-06-25T14:24:23.833Z,33.50
2018-06-25T14:26:54.169Z,33.10
2018-06-25T14:29:28.226Z,34.00
2018-06-25T14:34:03.258Z,34.60
2018-06-25T14:36:32.158Z,34.50
2018-06-25T14:39:01.047Z,33.20
2018-06-25T14:41:29.893Z,32.90
2018-06-25T14:43:58.747Z,33.90
2018-06-25T14:46:27.634Z,33.10
2018-06-25T14:48:56.502Z,33.80
2018-06-25T14:51:25.337Z,34.20
2018-06-25T14:53:54.201Z,33.80
2018-06-25T14:56:23.074Z,34.80
2018-06-25T14:58:51.950Z,35.00
2018-06-25T15:01:20.815Z,35.00
2018-06-25T15:03:49.697Z,34.50
2018-06-25T15:06:18.578Z,33.50
2018-06-25T15:08:47.481Z,33.20
2018-06-25T15:11:16.469Z,33.50
2018-06-25T15:13:45.293Z,32.50
2018-06-25T15:16:14.129Z,32.80
2018-06-25T15:18:42.968Z,32.00
2018-06-25T15:21:11.948Z,31.40
2018-06-25T15:23:40.841Z,31.90
2018-06-25T15:26:09.734Z,31.90
2018-06-25T15:28:38.709Z,31.20
2018-06-25T15:31:07.525Z,31.60
2018-06-25T15:33:36.341Z,32.00
2018-06-25T15:36:05.222Z,32.10
2018-06-25T15:38:34.079Z,32.20
2018-06-25T15:41:02.958Z,32.30
2018-06-25T15:43:31.858Z,32.20
2018-06-25T15:46:00.685Z,32.00
2018-06-25T15:48:29.585Z,31.60
2018-06-25T15:50:58.526Z,30.70
2018-06-25T15:53:27.394Z,30.70
2018-06-25T15:55:56.263Z,30.50
2018-06-25T15:58:25.280Z,30.10
2018-06-25T16:00:54.146Z,29.30
2018-06-25T16:03:23.079Z,28.70
2018-06-25T16:05:51.918Z,27.90
2018-06-25T16:08:20.780Z,27.30
2018-06-25T16:10:49.629Z,26.90
2018-06-25T16:13:18.474Z,26.10
2018-06-25T16:15:47.342Z,25.60
2018-06-25T16:18:16.231Z,25.30
2018-06-25T16:20:45.130Z,25.00
2018-06-25T16:23:14.074Z,24.70
2018-06-25T16:25:42.990Z,24.20
2018-06-25T16:28:11.903Z,24.00
2018-06-25T16:30:40.823Z,23.80
2018-06-25T16:33:09.681Z,23.80
2018-06-25T16:35:38.629Z,23.70
2018-06-25T16:38:07.633Z,23.60
2018-06-25T16:40:36.610Z,23.40
2018-06-25T16:43:05.629Z,23.40
2018-06-25T16:45:34.490Z,23.30
2018-06-25T16:48:03.334Z,23.20
2018-06-25T16:50:32.174Z,23.10
2018-06-25T16:53:01.020Z,23.00
2018-06-25T16:55:29.906Z,23.00
2018-06-25T16:57:58.848Z,22.90
2018-06-25T17:00:27.711Z,22.90
2018-06-25T17:02:56.759Z,22.80
2018-06-25T17:05:25.656Z,22.80
2018-06-25T17:07:54.520Z,22.70
2018-06-25T17:10:23.370Z,22.60
2018-06-25T17:12:52.210Z,22.50
2018-06-25T17:15:21.097Z,22.40
2018-06-25T17:17:50.099Z,22.40
2018-06-25T17:20:19.008Z,22.30
2018-06-25T17:22:47.848Z,22.20
2018-06-25T17:25:16.957Z,22.20
2018-06-25T17:27:45.897Z,22.10
2018-06-25T17:30:16.966Z,22.10
2018-06-25T17:32:46.729Z,22.00
2018-06-25T17:35:15.639Z,22.00
2018-06-25T17:37:44.498Z,22.00
2018-06-25T17:40:13.406Z,21.90
2018-06-25T17:42:42.257Z,21.90
2018-06-25T17:45:11.182Z,21.80
2018-06-25T17:47:40.093Z,21.70
2018-06-25T17:50:09.005Z,21.70
2018-06-25T17:52:37.867Z,21.60
2018-06-25T17:55:06.842Z,21.60
2018-06-25T17:57:35.685Z,21.50
2018-06-25T18:00:04.882Z,21.50
2018-06-25T18:02:33.770Z,21.40
2018-06-25T18:05:02.626Z,21.30
2018-06-25T18:07:37.506Z,21.20
2018-06-25T18:10:06.878Z,21.20
2018-06-25T18:12:35.721Z,21.10
2018-06-25T18:15:05.066Z,21.00
2018-06-25T18:17:33.902Z,21.00
2018-06-25T18:20:02.757Z,20.90
2018-06-25T18:22:32.572Z,20.90
2018-06-25T18:25:01.710Z,20.80
2018-06-25T18:27:30.862Z,20.80
2018-06-25T18:30:00.008Z,20.70
2018-06-25T18:32:29.288Z,20.60
2018-06-25T18:34:58.452Z,20.60
2018-06-25T18:37:27.559Z,20.40
2018-06-25T18:39:56.779Z,20.40
2018-06-25T18:42:25.835Z,20.30
2018-06-25T18:44:55.262Z,20.30
2018-06-25T18:47:24.479Z,20.20
2018-06-25T18:49:53.939Z,20.10
2018-06-25T18:52:23.334Z,20.00
2018-06-25T18:54:52.282Z,19.90
2018-06-25T18:57:21.690Z,19.90
2018-06-25T18:59:50.559Z,19.70
2018-06-25T19:02:19.547Z,19.70
2018-06-25T19:04:48.449Z,19.60
2018-06-25T19:07:17.393Z,19.60
2018-06-25T19:09:46.242Z,19.40
2018-06-25T19:12:15.111Z,19.40
2018-06-25T19:14:44.000Z,19.20
2018-06-25T19:17:12.846Z,19.20
2018-06-25T19:19:41.813Z,19.10
2018-06-25T19:22:10.698Z,19.00
2018-06-25T19:24:39.594Z,19.00
2018-06-25T19:27:08.508Z,19.00
2018-06-25T19:29:37.340Z,18.90
2018-06-25T19:32:06.368Z,19.00
2018-06-25T19:34:35.222Z,18.90
2018-06-25T19:37:04.168Z,18.80
2018-06-25T19:39:33.048Z,18.70
2018-06-25T19:42:01.943Z,18.60
2018-06-25T19:44:30.793Z,18.60
2018-06-25T19:46:59.652Z,18.60
2018-06-25T19:49:28.517Z,18.50
2018-06-25T19:51:57.357Z,18.40
2018-06-25T19:54:26.326Z,18.40
2018-06-25T19:56:55.214Z,18.40
2018-06-25T19:59:24.178Z,18.40
2018-06-25T20:01:53.194Z,18.30
2018-06-25T20:04:22.047Z,18.30
2018-06-25T20:06:51.114Z,18.30
2018-06-25T20:09:20.007Z,18.20
2018-06-25T20:11:48.889Z,18.10
2018-06-25T20:14:17.833Z,18.00
2018-06-25T20:16:46.910Z,17.90
2018-06-25T20:19:15.725Z,17.90
2018-06-25T20:21:44.663Z,17.80
2018-06-25T20:24:13.597Z,17.60
2018-06-25T20:26:42.444Z,17.50
2018-06-25T20:29:11.448Z,17.50
2018-06-25T20:31:40.265Z,17.50
2018-06-25T20:34:09.278Z,17.50
2018-06-25T20:36:38.165Z,17.40
2018-06-25T20:39:09.641Z,17.40
2018-06-25T20:41:38.566Z,17.40
2018-06-25T20:44:07.458Z,17.20
2018-06-25T20:46:36.402Z,17.10
2018-06-25T20:49:05.301Z,17.00
2018-06-25T20:51:34.170Z,17.00
2018-06-25T20:54:03.098Z,16.90
2018-06-25T20:56:31.982Z,16.80
2018-06-25T20:59:00.877Z,16.80
2018-06-25T21:01:29.790Z,16.70
2018-06-25T21:03:58.657Z,16.60
2018-06-25T21:06:27.643Z,16.60
2018-06-25T21:08:56.519Z,16.60
2018-06-25T21:11:25.408Z,16.50
2018-06-25T21:13:54.314Z,16.50
2018-06-25T21:16:23.170Z,16.50
2018-06-25T21:18:52.091Z,16.50
2018-06-25T21:21:21.028Z,16.40
2018-06-25T21:23:49.913Z,16.40
2018-06-25T21:26:18.786Z,16.40
2018-06-25T21:28:47.664Z,16.40
2018-06-25T21:31:16.597Z,16.30
2018-06-25T21:33:45.569Z,16.20
2018-06-25T21:36:14.502Z,16.20
2018-06-25T21:38:43.378Z,16.10
2018-06-25T21:41:12.306Z,16.00
2018-06-25T21:43:41.169Z,16.00
2018-06-25T21:46:10.050Z,16.00
2018-06-25T21:48:38.982Z,16.00
2018-06-25T21:51:07.854Z,15.90
2018-06-25T21:53:36.705Z,16.00
2018-06-25T21:56:05.590Z,16.00
2018-06-25T21:58:34.539Z,16.00
2018-06-25T22:01:04.215Z,16.00
2018-06-25T22:03:33.131Z,15.90
2018-06-25T22:06:01.983Z,15.90
2018-06-25T22:08:30.930Z,15.80
2018-06-25T22:10:59.818Z,15.80
2018-06-25T22:13:28.684Z,15.80
2018-06-25T22:15:57.575Z,15.70
2018-06-25T22:18:26.485Z,15.60
2018-06-25T22:20:55.374Z,15.50
2018-06-25T22:23:24.208Z,15.50
2018-06-25T22:25:53.103Z,15.50
2018-06-25T22:28:21.970Z,15.40
2018-06-25T22:30:50.836Z,15.40
2018-06-25T22:33:19.721Z,15.30
2018-06-25T22:35:48.555Z,15.30
2018-06-25T22:38:17.411Z,15.40
2018-06-25T22:40:46.302Z,15.40
2018-06-25T22:43:15.243Z,15.40
2018-06-25T22:45:44.134Z,15.40
2018-06-25T22:48:13.022Z,15.40
2018-06-25T22:50:41.894Z,15.40
2018-06-25T22:53:10.766Z,15.30
2018-06-25T22:55:39.686Z,15.20
2018-06-25T22:58:08.562Z,15.20
2018-06-25T23:00:37.442Z,15.20
2018-06-25T23:03:06.556Z,15.30
2018-06-25T23:05:35.454Z,15.30
2018-06-25T23:08:04.322Z,15.40
2018-06-25T23:10:33.316Z,15.40
2018-06-25T23:13:02.157Z,15.40
2018-06-25T23:15:31.038Z,15.40
2018-06-25T23:17:59.888Z,15.40
2018-06-25T23:20:28.798Z,15.40
2018-06-25T23:22:58.309Z,15.40
2018-06-25T23:25:27.191Z,15.40
2018-06-25T23:27:56.049Z,15.30
2018-06-25T23:30:24.927Z,15.30
2018-06-25T23:32:53.745Z,15.40
2018-06-25T23:35:22.686Z,15.30
2018-06-25T23:37:51.517Z,15.20
2018-06-25T23:40:20.454Z,15.20
2018-06-25T23:42:49.297Z,15.20
2018-06-25T23:45:18.193Z,15.10
2018-06-25T23:47:47.075Z,15.00
2018-06-25T23:50:15.982Z,15.00
2018-06-25T23:52:44.850Z,14.90
2018-06-25T23:55:13.768Z,14.90
2018-06-25T23:57:42.674Z,14.80
